Airfield :
LOGIN :

Register | Disclaimer

   EN    FR    IT 

 










Legend :    VFR   Marginal VFR   IFR   Intensive IFR   Very Intensive IFR
Visi :
Ceiling :
>= 8 km
>= 3000ft
5 to 8 km
1000 to 3000 ft
1500m to 5 km
500 to 1000 ft
800 to 1500m
200 to 500 ft
< 800m
< 200 ft
Symbols :   Thunderstorms  Fog  Heavy snow  Heavy precipitations  Wind > 20 kt
SIGMETs :     Misc.  Thunderstorms  Icing  Turbulence  Mountain Waves  Volcanic Ashes







- Airport Elevation : 308 ft
- IATA code : POZ


EPPO - Poznan-Lawica

CURRENT METAR :
  • 220830Z 21005KT CAVOK 06/06 Q1025

EXPIRED METARs :
  • 220800Z 22004KT 8000 NSC 06/06 Q1025
  • 220730Z 19004KT 6000 NSC 05/05 Q1025
  • 220700Z 21005KT 5000 BR NSC 04/04 Q1025
  • 220630Z 20003KT 2500 BR NSC 02/02 Q1025
  • 220600Z 19004KT 1200 R28/1500 BR NSC 01/01 Q1025

TAF TAF EPPO
Valid from the 22 at 06:00 until the 23 at 06:00 UTC


220530Z 2206/2306 20004KT 0500 FG NSC
BECMG 2206/2209 9999
BECMG 2210/2212 28010KT
TEMPO 2212/2216 -RA BKN007
No reported NOTAMs for that airfield.



MET'MAP, your aeronautical weather chart ! - Copyright ORBIFLY December 2007 - Disclaimer

ORBIFLY MET'MAP TEAM :

Programming & Development : Alexandra Zaïnal
Concept & Development : Baudouin d'Aumeries
Co-Development & Prog : Marc-Olivier Méhu
Technical & hardware support : Manuel Goepfert

Contact : metmap@orbifly.com




SOURCES & CREDITS :

   NOAA